Alexandria, Kentucky
Current Conditions -  °F | °C
As of 12:53 AM on Saturday 01 Nov 2014 (Local Time) from KLUK Reporting Station
Overcast Overcast  
Wind Chill: 26°   Ceiling: 2400
Heat Index: 37°   Visibility: 10mi
Dew Point: 30°   Wind: 23mph
Humidity: 76%   Direction: 350°N
Pressure: 30.05"   Gusts: 35mph
Location:  38.96°N, 84.4°W
Report Text: KLUK 010453Z AUTO 35020G30KT 10SM OVC024 03/M01 A3005 RMK AO2 PK WND 34030/0451 SLP177 T00281011 400890028
Loading
Personal Weather Stations






























Interactive Weather Map
Tropical Storm Tracking
New forecast layout! Learn more

10-Day Weather Forecast

Advertisements
Track Severe Weather on mobile